Time;durP1;ratioP1;P1;durP2;ratioP2;P2;SDS_P1;SDS_P2;PMS_P1;PMS_P2;Temp;Humidity;BMP_temperature;BMP_pressure;BME280_temperature;BME280_humidity;BME280_pressure;Samples;Min_cycle;Max_cycle;Signal;HPM_P1;HPM_P2
2023/10/28 00:02:22;;;;;;;0.43;0.40;;;10.70;99.90;;;;;;6276293;28;20055;-79
2023/10/28 00:05:24;;;;;;;1.13;0.90;;;10.70;99.90;;;;;;6275314;28;20041;-80
2023/10/28 00:08:26;;;;;;;1.27;0.55;;;10.60;99.90;;;;;;6275574;28;20056;-79
2023/10/28 00:11:29;;;;;;;1.17;0.73;;;10.60;99.90;;;;;;6276174;28;20188;-80
2023/10/28 00:14:32;;;;;;;1.52;1.20;;;10.60;99.90;;;;;;6275587;28;20052;-80
2023/10/28 00:17:34;;;;;;;1.15;0.50;;;10.60;99.90;;;;;;6259671;28;20045;-79
2023/10/28 00:20:36;;;;;;;2.95;0.60;;;10.60;99.90;;;;;;6276300;28;20041;-80
2023/10/28 00:23:38;;;;;;;1.02;0.50;;;10.50;99.90;;;;;;6275261;28;20144;-80
2023/10/28 00:26:39;;;;;;;0.73;0.50;;;10.50;99.90;;;;;;6276482;28;20045;-80
2023/10/28 00:29:42;;;;;;;0.63;0.47;;;10.50;99.90;;;;;;6281672;28;20060;-78
2023/10/28 00:32:44;;;;;;;0.38;0.30;;;10.50;99.90;;;;;;6276898;28;20040;-79
2023/10/28 00:35:46;;;;;;;0.57;0.40;;;10.50;99.90;;;;;;6269815;28;20037;-78
2023/10/28 00:38:47;;;;;;;2.60;0.57;;;10.50;99.90;;;;;;6267248;28;20498;-79
2023/10/28 00:41:49;;;;;;;0.65;0.30;;;10.50;99.90;;;;;;6275785;28;20399;-78
2023/10/28 00:44:54;;;;;;;0.85;0.35;;;10.50;99.90;;;;;;6279068;28;20049;-79
2023/10/28 00:47:57;;;;;;;2.03;1.08;;;10.50;99.90;;;;;;6280631;28;20044;-80
2023/10/28 00:50:59;;;;;;;2.58;0.88;;;10.50;99.90;;;;;;6280908;28;20041;-79
2023/10/28 00:54:01;;;;;;;4.43;0.28;;;10.50;99.90;;;;;;6278326;28;20055;-79
2023/10/28 00:57:04;;;;;;;0.52;0.47;;;10.50;99.90;;;;;;6277531;28;20143;-79
2023/10/28 01:00:08;;;;;;;0.57;0.57;;;10.50;99.90;;;;;;6276546;28;20494;-79
2023/10/28 01:03:10;;;;;;;0.52;0.45;;;10.40;99.90;;;;;;6278100;28;20048;-79
2023/10/28 01:06:13;;;;;;;1.00;0.82;;;10.40;99.90;;;;;;6277183;28;20052;-78
2023/10/28 01:09:15;;;;;;;1.00;0.55;;;10.40;99.90;;;;;;6270086;28;20041;-79
2023/10/28 01:12:16;;;;;;;1.45;0.70;;;10.40;99.90;;;;;;6272311;28;20414;-79
2023/10/28 01:15:20;;;;;;;1.98;0.50;;;10.40;99.90;;;;;;6276521;28;20068;-79
2023/10/28 01:18:21;;;;;;;0.68;0.40;;;10.40;99.90;;;;;;6270215;28;20045;-79
2023/10/28 01:21:24;;;;;;;0.65;0.65;;;10.40;99.90;;;;;;6276466;28;20053;-79
2023/10/28 01:24:28;;;;;;;1.55;1.00;;;10.40;99.90;;;;;;6276329;28;20056;-79
2023/10/28 01:27:30;;;;;;;0.40;0.30;;;10.40;99.90;;;;;;6274537;28;20045;-79
2023/10/28 01:30:31;;;;;;;0.85;0.85;;;10.40;99.90;;;;;;6273897;28;20046;-79
2023/10/28 01:33:33;;;;;;;0.57;0.57;;;10.40;99.90;;;;;;6274654;28;20136;-79
2023/10/28 01:36:36;;;;;;;0.70;0.70;;;10.40;99.90;;;;;;6274416;28;20041;-79
2023/10/28 01:39:38;;;;;;;3.67;0.80;;;10.40;99.90;;;;;;6274285;28;20040;-80
2023/10/28 01:42:41;;;;;;;3.58;1.17;;;10.40;99.90;;;;;;6276694;28;20041;-79
2023/10/28 01:45:43;;;;;;;11.20;1.10;;;10.40;99.90;;;;;;6275279;28;20051;-79
2023/10/28 01:48:45;;;;;;;3.92;0.73;;;10.30;99.90;;;;;;6276294;28;20051;-79
2023/10/28 01:51:48;;;;;;;1.48;0.70;;;10.20;99.90;;;;;;6266521;28;20496;-80
2023/10/28 01:54:50;;;;;;;1.13;0.60;;;10.20;99.90;;;;;;6267728;28;20041;-79
2023/10/28 01:57:52;;;;;;;1.00;0.68;;;10.10;99.90;;;;;;6275336;28;20084;-79
2023/10/28 02:00:53;;;;;;;0.93;0.52;;;10.00;99.90;;;;;;6275502;28;20057;-80
2023/10/28 02:03:56;;;;;;;5.28;0.85;;;10.00;99.90;;;;;;6273133;28;20051;-78
2023/10/28 02:06:59;;;;;;;3.60;0.88;;;9.90;99.90;;;;;;6274346;28;20049;-79
2023/10/28 02:10:00;;;;;;;0.60;0.60;;;10.00;99.90;;;;;;6276577;28;20060;-79
2023/10/28 02:13:03;;;;;;;0.65;0.65;;;10.00;99.90;;;;;;6282770;28;20580;-79
2023/10/28 02:16:06;;;;;;;2.28;1.05;;;10.10;99.90;;;;;;6278272;28;20048;-80
2023/10/28 02:19:08;;;;;;;2.47;0.82;;;10.10;99.90;;;;;;6278901;28;20037;-79
2023/10/28 02:22:11;;;;;;;2.22;0.88;;;10.00;99.90;;;;;;6276931;28;20041;-79
2023/10/28 02:25:14;;;;;;;0.80;0.68;;;10.00;99.90;;;;;;6277738;28;20041;-78
2023/10/28 02:28:15;;;;;;;2.65;0.82;;;10.10;99.90;;;;;;6271719;28;20049;-80
2023/10/28 02:31:17;;;;;;;1.55;1.02;;;10.10;99.90;;;;;;6264957;28;20043;-79
2023/10/28 02:34:19;;;;;;;1.20;0.98;;;10.20;99.90;;;;;;6278157;28;20041;-79
2023/10/28 02:37:22;;;;;;;1.55;1.02;;;10.20;99.90;;;;;;6279870;28;20100;-80
2023/10/28 02:40:24;;;;;;;9.63;1.33;;;10.30;99.90;;;;;;6278468;28;20044;-79
2023/10/28 02:43:26;;;;;;;1.40;0.95;;;10.30;99.90;;;;;;6279461;28;20498;-79
2023/10/28 02:46:27;;;;;;;1.65;0.95;;;10.40;99.90;;;;;;6279561;28;20044;-79
2023/10/28 02:49:29;;;;;;;0.60;0.60;;;10.40;99.90;;;;;;6272043;28;20072;-79
2023/10/28 02:52:32;;;;;;;9.15;1.08;;;10.40;99.90;;;;;;6275621;28;20049;-79
2023/10/28 02:55:36;;;;;;;5.57;0.93;;;10.50;99.90;;;;;;6268689;28;20121;-80
2023/10/28 02:58:39;;;;;;;1.42;1.08;;;10.50;99.90;;;;;;6276068;28;20115;-78
2023/10/28 03:01:41;;;;;;;1.45;0.98;;;10.60;99.90;;;;;;6277358;28;20075;-78
2023/10/28 03:04:43;;;;;;;3.08;1.25;;;10.50;99.90;;;;;;6278534;28;20041;-78
2023/10/28 03:07:46;;;;;;;10.85;1.65;;;10.50;99.90;;;;;;6277002;28;20071;-79
2023/10/28 03:10:47;;;;;;;2.10;0.98;;;10.60;99.90;;;;;;6244807;28;20048;-79
2023/10/28 03:13:49;;;;;;;8.77;1.13;;;10.60;99.90;;;;;;6252843;28;20053;-80
2023/10/28 03:16:51;;;;;;;1.70;0.85;;;10.70;99.90;;;;;;6254013;28;20060;-79
2023/10/28 03:19:52;;;;;;;3.88;1.27;;;10.70;99.90;;;;;;6253300;28;20048;-79
2023/10/28 03:22:55;;;;;;;2.00;1.10;;;10.80;99.90;;;;;;6261088;28;20059;-79
2023/10/28 03:25:57;;;;;;;1.38;0.80;;;10.90;99.90;;;;;;6251670;28;20049;-79
2023/10/28 03:28:59;;;;;;;1.05;0.82;;;10.90;99.90;;;;;;6252243;28;20053;-78
2023/10/28 03:32:01;;;;;;;2.40;1.05;;;10.90;99.90;;;;;;6253262;28;20502;-80
2023/10/28 03:35:03;;;;;;;2.10;0.50;;;10.90;99.90;;;;;;6252634;28;20049;-79
2023/10/28 03:38:06;;;;;;;12.35;1.30;;;10.90;99.90;;;;;;6252260;28;20053;-79
2023/10/28 03:41:08;;;;;;;5.68;0.98;;;11.00;99.90;;;;;;6254303;28;20049;-78
2023/10/28 03:44:10;;;;;;;1.85;0.80;;;11.00;99.90;;;;;;6256185;28;20041;-78
2023/10/28 03:47:12;;;;;;;1.30;1.25;;;11.00;99.90;;;;;;6257137;28;20052;-79
2023/10/28 03:50:14;;;;;;;3.85;1.17;;;10.90;99.90;;;;;;6252769;28;20045;-79
2023/10/28 03:53:17;;;;;;;5.05;0.95;;;10.90;99.90;;;;;;6253962;28;20072;-79
2023/10/28 03:56:18;;;;;;;0.50;0.30;;;10.90;99.90;;;;;;6254687;28;20053;-79
2023/10/28 03:59:21;;;;;;;12.48;1.33;;;10.90;99.90;;;;;;6254547;28;20049;-79
2023/10/28 04:02:23;;;;;;;0.50;0.35;;;10.90;99.90;;;;;;6255172;28;20061;-79
2023/10/28 04:05:24;;;;;;;3.22;0.90;;;11.00;99.90;;;;;;6251209;28;20463;-80
2023/10/28 04:08:27;;;;;;;0.95;0.80;;;11.00;99.90;;;;;;6252395;28;20362;-79
2023/10/28 04:11:29;;;;;;;3.58;0.77;;;11.00;99.90;;;;;;6250851;28;20121;-80
2023/10/28 04:14:31;;;;;;;1.67;0.85;;;11.00;99.90;;;;;;6251737;28;20427;-79
2023/10/28 04:17:32;;;;;;;3.38;0.95;;;11.10;99.90;;;;;;6249166;28;20065;-78
2023/10/28 04:20:35;;;;;;;4.22;1.48;;;11.10;99.90;;;;;;6248864;28;20180;-78
2023/10/28 04:23:38;;;;;;;2.90;1.70;;;11.10;99.90;;;;;;6251952;28;20041;-80
2023/10/28 04:26:40;;;;;;;2.60;1.05;;;11.10;99.90;;;;;;6255455;28;20102;-79
2023/10/28 04:29:42;;;;;;;0.75;0.75;;;11.10;99.90;;;;;;6276181;28;20421;-78
2023/10/28 04:32:43;;;;;;;9.10;1.00;;;11.10;99.90;;;;;;6275359;28;20049;-79
2023/10/28 04:35:45;;;;;;;6.82;0.85;;;11.00;99.90;;;;;;6274945;28;20048;-79
2023/10/28 04:38:48;;;;;;;0.70;0.60;;;11.10;99.90;;;;;;6275751;28;20097;-79
2023/10/28 04:41:51;;;;;;;1.15;0.52;;;11.10;99.90;;;;;;6275226;28;20482;-79
2023/10/28 04:44:52;;;;;;;0.88;0.70;;;11.10;99.90;;;;;;6275094;28;20071;-79
2023/10/28 04:47:54;;;;;;;2.00;0.60;;;11.10;99.90;;;;;;6274296;28;20067;-79
2023/10/28 04:50:56;;;;;;;1.77;1.15;;;11.10;99.90;;;;;;6274409;28;20057;-79
2023/10/28 04:53:59;;;;;;;4.57;0.73;;;11.10;99.90;;;;;;6274840;28;20045;-79
2023/10/28 04:57:02;;;;;;;0.52;0.50;;;11.00;99.90;;;;;;6274471;28;20142;-79
2023/10/28 05:00:05;;;;;;;1.35;0.70;;;11.10;99.90;;;;;;6273972;28;20051;-79
2023/10/28 05:03:06;;;;;;;1.02;0.80;;;11.10;99.90;;;;;;6274763;28;20055;-79
2023/10/28 05:06:09;;;;;;;1.33;0.80;;;11.10;99.90;;;;;;6273935;28;20041;-79
2023/10/28 05:09:15;;;;;;;0.40;0.38;;;11.20;99.90;;;;;;6275152;28;20052;-79
2023/10/28 05:12:18;;;;;;;2.85;1.02;;;11.20;99.90;;;;;;6271017;28;20124;-79
2023/10/28 05:15:19;;;;;;;0.40;0.40;;;11.30;99.90;;;;;;6275951;28;20527;-80
2023/10/28 05:18:21;;;;;;;1.58;0.50;;;11.30;99.90;;;;;;6275927;28;20041;-80
2023/10/28 05:21:23;;;;;;;3.05;0.40;;;11.30;99.90;;;;;;6276947;28;20045;-79
2023/10/28 05:24:26;;;;;;;3.95;0.30;;;11.40;99.90;;;;;;6275210;28;20041;-79
2023/10/28 05:27:28;;;;;;;0.30;0.30;;;11.40;99.90;;;;;;6275523;28;20041;-79
2023/10/28 05:30:30;;;;;;;0.22;0.22;;;11.40;99.90;;;;;;6275723;28;20048;-80
2023/10/28 05:33:31;;;;;;;0.45;0.40;;;11.40;99.90;;;;;;6278312;28;20132;-80
2023/10/28 05:36:34;;;;;;;0.30;0.30;;;11.40;99.90;;;;;;6276359;28;20037;-80
2023/10/28 05:39:40;;;;;;;5.15;0.63;;;11.50;99.90;;;;;;6275468;28;20063;-80
2023/10/28 05:42:42;;;;;;;1.25;0.38;;;11.50;99.90;;;;;;6275055;28;20512;-81
2023/10/28 05:45:43;;;;;;;4.93;0.60;;;11.50;99.90;;;;;;6275421;28;20053;-81
2023/10/28 05:48:45;;;;;;;0.95;0.60;;;11.50;99.90;;;;;;6274826;28;20047;-81
2023/10/28 05:51:46;;;;;;;0.80;0.52;;;11.50;99.90;;;;;;6270107;28;20063;-80
2023/10/28 05:54:50;;;;;;;0.20;0.20;;;11.50;99.90;;;;;;6275464;28;20047;-79
2023/10/28 05:57:51;;;;;;;1.20;0.28;;;11.50;99.90;;;;;;6275904;28;20064;-81
2023/10/28 06:00:54;;;;;;;0.30;0.28;;;11.60;99.90;;;;;;6274062;28;20402;-81
2023/10/28 06:03:56;;;;;;;0.90;0.73;;;11.60;99.90;;;;;;6274853;28;20628;-80
2023/10/28 06:06:57;;;;;;;1.10;0.73;;;11.60;99.90;;;;;;6274659;28;20045;-80
2023/10/28 06:10:01;;;;;;;0.95;0.60;;;11.60;99.90;;;;;;6274501;28;20055;-80
2023/10/28 06:13:02;;;;;;;2.33;1.15;;;11.60;99.90;;;;;;6275625;28;20174;-80
2023/10/28 06:16:05;;;;;;;1.13;0.47;;;11.70;99.90;;;;;;6276496;28;20621;-79
2023/10/28 06:19:07;;;;;;;0.70;0.70;;;11.70;99.90;;;;;;6274889;28;20446;-79
2023/10/28 06:22:11;;;;;;;3.28;0.60;;;11.70;99.90;;;;;;6274263;28;20048;-80
2023/10/28 06:25:14;;;;;;;2.03;0.30;;;11.80;99.90;;;;;;6275258;28;20055;-80
2023/10/28 06:28:18;;;;;;;0.30;0.30;;;11.80;99.90;;;;;;6286015;22;20045;-74
2023/10/28 06:31:20;;;;;;;4.47;0.93;;;11.80;99.90;;;;;;6268803;28;20045;-76
2023/10/28 06:34:22;;;;;;;0.70;0.70;;;11.80;99.90;;;;;;6268538;28;20083;-75
2023/10/28 06:37:24;;;;;;;0.30;0.25;;;11.80;99.90;;;;;;6268171;28;20521;-76
2023/10/28 06:40:28;;;;;;;1.73;0.50;;;11.90;99.90;;;;;;6272526;28;20044;-76
2023/10/28 06:43:30;;;;;;;0.52;0.22;;;11.90;99.90;;;;;;6277356;28;20037;-76
2023/10/28 06:46:32;;;;;;;2.55;0.40;;;11.90;99.90;;;;;;6282385;28;20036;-76
2023/10/28 06:49:34;;;;;;;6.13;0.77;;;12.00;99.90;;;;;;6271494;28;20056;-75
2023/10/28 06:52:36;;;;;;;0.70;0.50;;;12.00;99.90;;;;;;6268099;28;20033;-76
2023/10/28 06:55:39;;;;;;;0.80;0.50;;;12.00;99.90;;;;;;6268697;28;20052;-76
2023/10/28 06:58:41;;;;;;;2.00;0.45;;;12.00;99.90;;;;;;6271711;28;20394;-76
2023/10/28 07:01:44;;;;;;;1.55;0.85;;;12.00;99.90;;;;;;6273386;28;20041;-77
2023/10/28 07:04:45;;;;;;;2.35;0.68;;;12.10;99.90;;;;;;6280643;28;20041;-76
2023/10/28 07:07:48;;;;;;;6.63;0.75;;;12.20;99.90;;;;;;6280037;28;20033;-75
2023/10/28 07:10:51;;;;;;;2.13;0.55;;;12.20;99.90;;;;;;6281671;28;20049;-76
2023/10/28 07:13:52;;;;;;;1.95;1.17;;;12.20;99.90;;;;;;6280106;28;20056;-76
2023/10/28 07:16:54;;;;;;;6.68;0.82;;;12.30;99.90;;;;;;6273127;28;20515;-76
2023/10/28 07:19:56;;;;;;;0.50;0.35;;;12.40;99.90;;;;;;6264347;28;20513;-77
2023/10/28 07:22:59;;;;;;;2.08;0.77;;;12.40;99.90;;;;;;6264889;28;20055;-76
2023/10/28 07:26:02;;;;;;;0.22;0.22;;;12.50;99.90;;;;;;6281749;28;20501;-76
2023/10/28 07:29:06;;;;;;;1.20;1.05;;;12.60;99.90;;;;;;6272369;28;20087;-76
2023/10/28 07:32:09;;;;;;;1.83;0.63;;;12.70;99.90;;;;;;6271893;28;20045;-76
2023/10/28 07:35:10;;;;;;;2.72;0.77;;;12.90;99.90;;;;;;6272208;28;20049;-76
2023/10/28 07:38:12;;;;;;;3.08;0.70;;;13.00;99.90;;;;;;6280389;28;20481;-76
2023/10/28 07:41:15;;;;;;;3.38;0.55;;;13.00;99.90;;;;;;6272333;28;20518;-77
2023/10/28 07:44:17;;;;;;;2.03;0.95;;;12.80;99.90;;;;;;6271785;28;20056;-76
2023/10/28 07:47:19;;;;;;;4.85;1.08;;;12.80;99.90;;;;;;6282873;28;20036;-77
2023/10/28 07:50:20;;;;;;;1.98;0.70;;;12.90;99.90;;;;;;6307572;28;20037;-76
2023/10/28 07:53:22;;;;;;;0.88;0.60;;;13.10;99.90;;;;;;6272844;28;20051;-76
2023/10/28 07:56:25;;;;;;;0.77;0.52;;;13.30;99.90;;;;;;6271927;28;20055;-76
2023/10/28 07:59:27;;;;;;;1.77;0.90;;;13.40;99.90;;;;;;6271480;28;20052;-77
2023/10/28 08:02:29;;;;;;;0.63;0.63;;;13.40;99.90;;;;;;6279918;28;20052;-76
2023/10/28 08:05:31;;;;;;;0.68;0.47;;;13.40;99.90;;;;;;6280090;28;20041;-77
2023/10/28 08:08:32;;;;;;;5.07;1.23;;;13.40;99.90;;;;;;6270710;28;20033;-77
2023/10/28 08:11:35;;;;;;;1.42;0.70;;;13.50;99.90;;;;;;6272765;28;20051;-77
2023/10/28 08:14:37;;;;;;;4.72;0.70;;;13.60;99.90;;;;;;6273189;28;20044;-75
2023/10/28 08:17:39;;;;;;;2.47;0.82;;;13.80;99.90;;;;;;6273311;28;20632;-77
2023/10/28 08:20:44;;;;;;;1.48;0.68;;;13.90;99.90;;;;;;6272437;28;20041;-76
2023/10/28 08:23:46;;;;;;;3.25;0.45;;;14.00;99.90;;;;;;6288654;28;20041;-77
2023/10/28 08:26:49;;;;;;;1.15;0.65;;;14.00;99.90;;;;;;6244545;28;20095;-75
2023/10/28 08:29:51;;;;;;;0.98;0.57;;;14.10;99.90;;;;;;6253123;28;20053;-75
2023/10/28 08:32:53;;;;;;;0.80;0.47;;;14.40;99.90;;;;;;6284931;28;20053;-75
2023/10/28 08:35:58;;;;;;;1.40;0.60;;;14.60;99.90;;;;;;6262151;28;20041;-75
2023/10/28 08:38:59;;;;;;;3.33;1.23;;;15.00;99.90;;;;;;6264342;28;20052;-75
2023/10/28 08:42:06;;;;;;;2.50;0.95;;;15.30;99.90;;;;;;6266034;28;20048;-76
2023/10/28 08:45:08;;;;;;;1.48;1.00;;;15.70;99.90;;;;;;6272893;28;20092;-75
2023/10/28 08:48:11;;;;;;;3.40;1.20;;;15.90;99.90;;;;;;6271414;28;20417;-76
2023/10/28 08:51:14;;;;;;;3.53;1.67;;;16.00;99.90;;;;;;6269006;28;20142;-76
2023/10/28 08:54:17;;;;;;;5.13;0.80;;;16.20;99.90;;;;;;6280111;28;20045;-78
2023/10/28 08:57:23;;;;;;;4.50;1.20;;;16.30;99.90;;;;;;6286896;28;20051;-76
2023/10/28 09:00:26;;;;;;;6.05;0.80;;;16.10;99.90;;;;;;6297057;28;20049;-75
2023/10/28 09:03:30;;;;;;;1.88;0.95;;;16.00;99.90;;;;;;6267073;28;20049;-77
2023/10/28 09:06:32;;;;;;;0.50;0.50;;;15.90;99.90;;;;;;6271535;28;20040;-76
2023/10/28 09:09:37;;;;;;;0.52;0.52;;;16.00;99.90;;;;;;6270666;28;20527;-76
2023/10/28 09:12:40;;;;;;;1.77;1.08;;;16.00;99.90;;;;;;6271099;28;20052;-76
2023/10/28 09:15:42;;;;;;;0.82;0.82;;;15.90;99.90;;;;;;6270648;28;20045;-76
2023/10/28 09:18:45;;;;;;;7.05;0.70;;;15.90;99.90;;;;;;6271232;28;20041;-77
2023/10/28 09:21:47;;;;;;;0.75;0.70;;;16.00;99.90;;;;;;6271781;28;20048;-77
2023/10/28 09:24:52;;;;;;;7.78;1.63;;;16.00;99.90;;;;;;6270915;28;20513;-77
2023/10/28 09:27:55;;;;;;;2.88;1.00;;;16.20;99.90;;;;;;6271296;28;20052;-76
2023/10/28 09:30:59;;;;;;;1.35;0.85;;;16.20;99.90;;;;;;6285841;28;20055;-76
2023/10/28 09:34:00;;;;;;;2.40;0.93;;;16.00;99.90;;;;;;6271535;28;20469;-76
2023/10/28 09:37:04;;;;;;;2.85;0.90;;;16.00;99.90;;;;;;6271619;28;20082;-76
2023/10/28 09:40:10;;;;;;;3.40;1.10;;;15.70;99.90;;;;;;6283931;28;20049;-76
2023/10/28 09:43:15;;;;;;;2.42;0.90;;;15.60;99.90;;;;;;6270760;28;20072;-77
2023/10/28 09:46:20;;;;;;;1.58;0.98;;;15.50;99.90;;;;;;6260726;28;20049;-76
2023/10/28 09:49:25;;;;;;;1.45;0.85;;;15.60;99.90;;;;;;6261463;28;20044;-76
2023/10/28 09:52:31;;;;;;;3.08;0.80;;;15.50;99.90;;;;;;6264479;28;20523;-75
2023/10/28 09:55:35;;;;;;;3.17;1.27;;;15.60;99.90;;;;;;6273955;28;20048;-77
2023/10/28 09:58:43;;;;;;;4.75;1.10;;;15.70;99.90;;;;;;6273878;28;20049;-75
2023/10/28 10:01:55;;;;;;;2.08;1.08;;;15.90;99.90;;;;;;6281305;28;20044;-76
2023/10/28 10:05:02;;;;;;;3.30;1.02;;;16.10;99.90;;;;;;6269862;28;20059;-75
2023/10/28 10:08:06;;;;;;;4.75;1.23;;;16.20;99.90;;;;;;6282560;28;20045;-76
2023/10/28 10:11:08;;;;;;;1.33;0.88;;;16.30;99.90;;;;;;6270217;28;20075;-76
2023/10/28 10:14:13;;;;;;;0.50;0.40;;;16.30;99.90;;;;;;6269832;28;20045;-75
2023/10/28 10:17:23;;;;;;;4.63;0.88;;;16.30;99.90;;;;;;6269762;28;20045;-75
2023/10/28 10:20:26;;;;;;;4.38;0.82;;;16.30;99.90;;;;;;6269473;28;20051;-74
2023/10/28 10:23:39;;;;;;;1.80;0.80;;;16.30;99.90;;;;;;6269489;28;20061;-74
2023/10/28 10:26:41;;;;;;;2.05;0.95;;;16.30;99.90;;;;;;6268855;28;20047;-74
2023/10/28 10:29:44;;;;;;;1.73;0.80;;;16.10;99.90;;;;;;6285599;28;20067;-74
2023/10/28 10:32:46;;;;;;;8.85;1.40;;;16.10;99.90;;;;;;6276110;28;20119;-74
2023/10/28 10:35:50;;;;;;;2.45;1.42;;;16.00;99.90;;;;;;6274232;28;20048;-74
2023/10/28 10:38:52;;;;;;;4.45;1.75;;;15.90;99.90;;;;;;6274284;28;20112;-74
2023/10/28 10:41:55;;;;;;;6.18;2.67;;;15.70;99.90;;;;;;6271564;28;20049;-74
2023/10/28 10:44:59;;;;;;;9.57;2.78;;;15.70;99.90;;;;;;6269684;28;20053;-74
2023/10/28 10:48:02;;;;;;;6.00;2.58;;;15.50;99.90;;;;;;6274561;28;20044;-74
2023/10/28 10:51:05;;;;;;;6.00;2.35;;;15.40;99.90;;;;;;6272712;28;20064;-74
2023/10/28 10:54:07;;;;;;;4.72;1.98;;;15.40;99.90;;;;;;6273254;28;20056;-74
2023/10/28 10:57:10;;;;;;;5.50;1.95;;;15.40;99.90;;;;;;6265898;28;20053;-74
2023/10/28 11:00:14;;;;;;;5.18;2.30;;;15.50;99.90;;;;;;6292499;28;20059;-74
2023/10/28 11:03:16;;;;;;;6.82;3.72;;;15.60;99.90;;;;;;6275600;28;20049;-74
2023/10/28 11:06:19;;;;;;;7.25;2.13;;;15.70;99.90;;;;;;6273370;28;20516;-74
2023/10/28 11:09:21;;;;;;;9.57;3.58;;;15.80;99.90;;;;;;6273384;28;20051;-74
2023/10/28 11:12:24;;;;;;;13.63;3.67;;;16.00;99.90;;;;;;6273525;28;20036;-75
2023/10/28 11:15:28;;;;;;;11.00;5.20;;;16.10;99.90;;;;;;6273292;28;20056;-75
2023/10/28 11:18:30;;;;;;;9.75;2.70;;;16.30;99.90;;;;;;6286290;28;20072;-74
2023/10/28 11:21:33;;;;;;;21.42;7.00;;;16.40;99.90;;;;;;6273928;28;20041;-74
2023/10/28 11:24:37;;;;;;;8.30;4.55;;;16.40;99.90;;;;;;6272861;28;20045;-74
2023/10/28 11:27:39;;;;;;;7.00;2.17;;;16.40;99.90;;;;;;6272527;28;20505;-74
2023/10/28 11:30:49;;;;;;;2.90;1.45;;;16.40;99.90;;;;;;6279301;28;20441;-74
2023/10/28 11:33:51;;;;;;;4.13;1.10;;;16.30;99.90;;;;;;6273166;28;20101;-75
2023/10/28 11:36:55;;;;;;;2.97;0.98;;;16.10;99.90;;;;;;6272762;28;20075;-75
2023/10/28 11:39:56;;;;;;;12.88;1.50;;;15.90;99.90;;;;;;6272303;28;20115;-75
2023/10/28 11:42:58;;;;;;;3.67;0.95;;;15.60;99.90;;;;;;6272073;28;20059;-74
2023/10/28 11:46:02;;;;;;;2.03;0.90;;;15.40;99.90;;;;;;6256472;28;20049;-74
2023/10/28 11:49:04;;;;;;;4.22;1.25;;;15.30;99.90;;;;;;6266548;28;20056;-75
2023/10/28 11:52:06;;;;;;;2.53;1.25;;;15.20;99.90;;;;;;6280912;28;20045;-75
2023/10/28 11:55:09;;;;;;;2.67;1.27;;;15.00;99.90;;;;;;6271887;28;20051;-75
2023/10/28 11:58:11;;;;;;;5.53;3.65;;;14.90;99.90;;;;;;6271728;28;20114;-75
2023/10/28 12:01:15;;;;;;;15.48;10.90;;;14.70;99.90;;;;;;6272242;28;20049;-76
2023/10/28 12:04:17;;;;;;;3.30;1.45;;;14.40;99.90;;;;;;6272001;28;20128;-76
2023/10/28 12:07:19;;;;;;;5.50;1.88;;;14.20;99.90;;;;;;6271500;28;20458;-75
2023/10/28 12:10:20;;;;;;;5.20;3.05;;;14.00;99.90;;;;;;6271481;28;20069;-75
2023/10/28 12:13:22;;;;;;;9.32;1.70;;;13.90;99.90;;;;;;6265451;28;20049;-75
2023/10/28 12:16:25;;;;;;;12.85;8.35;;;13.80;99.90;;;;;;6278919;28;20036;-75
2023/10/28 12:19:27;;;;;;;29.45;14.88;;;13.70;99.90;;;;;;6277997;28;20068;-74
2023/10/28 12:22:29;;;;;;;26.63;13.63;;;13.60;99.90;;;;;;6277510;28;20037;-75
2023/10/28 12:25:31;;;;;;;20.98;15.65;;;13.50;99.90;;;;;;6272714;28;20130;-76
2023/10/28 12:28:33;;;;;;;8.07;4.38;;;13.50;99.90;;;;;;6292934;28;20041;-74
2023/10/28 12:31:37;;;;;;;5.45;2.60;;;13.50;99.90;;;;;;6289808;28;20044;-74
2023/10/28 12:34:38;;;;;;;3.78;2.55;;;13.50;99.90;;;;;;6277256;28;20048;-75
2023/10/28 12:37:40;;;;;;;8.32;3.75;;;13.50;99.90;;;;;;6274186;28;20041;-76
2023/10/28 12:40:42;;;;;;;24.98;20.77;;;13.60;99.90;;;;;;6268370;28;20045;-75
2023/10/28 12:43:44;;;;;;;12.43;10.95;;;13.60;99.90;;;;;;6272183;28;20043;-75
2023/10/28 12:46:47;;;;;;;4.25;3.17;;;13.60;99.90;;;;;;6274982;28;20506;-75
2023/10/28 12:49:49;;;;;;;7.35;4.57;;;13.70;99.90;;;;;;6267401;28;20066;-75
2023/10/28 12:52:51;;;;;;;13.18;9.00;;;13.70;99.90;;;;;;6275432;28;20063;-75
2023/10/28 12:56:09;;;;;;;13.90;7.57;;;13.60;99.90;;;;;;6299711;27;20375;-75
2023/10/28 12:59:11;;;;;;;17.83;13.75;;;13.60;99.90;;;;;;6294270;28;20174;-75
2023/10/28 13:02:12;;;;;;;15.95;5.60;;;13.50;99.90;;;;;;6291800;28;20071;-75
2023/10/28 13:05:14;;;;;;;3.25;2.72;;;13.40;99.90;;;;;;6317854;28;20357;-75
2023/10/28 13:08:16;;;;;;;11.68;2.72;;;13.40;99.90;;;;;;6306147;28;20546;-76
2023/10/28 13:11:19;;;;;;;5.57;2.83;;;13.30;99.90;;;;;;6305086;28;20036;-75
2023/10/28 13:14:21;;;;;;;10.32;2.97;;;13.30;99.90;;;;;;6316129;28;20048;-76
2023/10/28 13:17:22;;;;;;;7.68;3.42;;;13.20;99.90;;;;;;6290543;28;20433;-76
2023/10/28 13:20:24;;;;;;;4.03;2.42;;;13.20;99.90;;;;;;6300250;28;20052;-76
2023/10/28 13:23:26;;;;;;;4.78;2.45;;;13.20;99.90;;;;;;6297317;28;20209;-75
2023/10/28 13:26:30;;;;;;;5.85;2.05;;;13.10;99.90;;;;;;6298671;28;20696;-76
2023/10/28 13:29:32;;;;;;;7.75;2.40;;;13.10;99.90;;;;;;6290493;28;20055;-75
2023/10/28 13:32:34;;;;;;;7.25;1.63;;;13.00;99.90;;;;;;6287095;28;20041;-76
2023/10/28 13:35:37;;;;;;;5.60;2.45;;;12.90;99.90;;;;;;6306078;28;20040;-76
2023/10/28 13:38:39;;;;;;;4.40;1.65;;;12.80;99.90;;;;;;6315937;28;20032;-76
2023/10/28 13:41:42;;;;;;;3.22;1.80;;;12.80;99.90;;;;;;6303216;28;20045;-76
2023/10/28 13:44:43;;;;;;;5.82;1.73;;;12.70;99.90;;;;;;6290233;28;20055;-76
2023/10/28 13:47:45;;;;;;;4.68;1.48;;;12.70;99.90;;;;;;6302728;28;20111;-76
2023/10/28 13:50:47;;;;;;;5.03;2.10;;;12.70;99.90;;;;;;6307933;28;20046;-76
2023/10/28 13:53:49;;;;;;;10.77;3.30;;;12.70;99.90;;;;;;6303648;28;20056;-77
2023/10/28 13:56:52;;;;;;;6.78;2.78;;;12.70;99.90;;;;;;6289901;28;20044;-78
2023/10/28 13:59:55;;;;;;;5.60;3.60;;;12.80;99.90;;;;;;6307817;28;20044;-76
2023/10/28 14:02:57;;;;;;;19.13;7.88;;;12.90;99.90;;;;;;6311661;28;20167;-76
2023/10/28 14:05:59;;;;;;;12.00;5.32;;;12.90;99.90;;;;;;6279272;28;20060;-76
2023/10/28 14:09:04;;;;;;;7.32;2.60;;;12.90;99.90;;;;;;6260290;28;20060;-76
2023/10/28 14:12:07;;;;;;;4.35;1.88;;;12.90;99.90;;;;;;6273636;28;20553;-75
2023/10/28 14:15:11;;;;;;;6.65;2.42;;;12.90;99.90;;;;;;6271924;28;20041;-76
2023/10/28 14:18:15;;;;;;;2.88;2.35;;;12.90;99.90;;;;;;6266637;28;20041;-76
2023/10/28 14:21:17;;;;;;;5.47;2.50;;;12.90;99.90;;;;;;6250052;28;20483;-76
2023/10/28 14:24:20;;;;;;;19.00;5.22;;;13.00;99.90;;;;;;6247704;28;20049;-77
2023/10/28 14:27:23;;;;;;;7.75;4.30;;;13.00;99.90;;;;;;6239780;28;20538;-76
2023/10/28 14:30:25;;;;;;;2.20;1.70;;;13.00;99.90;;;;;;6249441;28;20728;-77
2023/10/28 14:33:26;;;;;;;4.80;2.63;;;13.00;99.90;;;;;;6288926;28;20424;-76
2023/10/28 14:36:28;;;;;;;4.68;2.38;;;13.00;99.90;;;;;;6263167;28;20072;-76
2023/10/28 14:39:30;;;;;;;11.25;5.30;;;12.90;99.90;;;;;;6267273;28;20041;-76
2023/10/28 14:42:35;;;;;;;8.25;3.65;;;12.90;99.90;;;;;;6269154;28;20053;-75
2023/10/28 14:45:36;;;;;;;4.32;3.63;;;13.00;99.90;;;;;;6272913;28;20045;-76
2023/10/28 14:48:38;;;;;;;8.25;7.13;;;13.00;99.90;;;;;;6273324;28;20136;-75
2023/10/28 14:51:40;;;;;;;7.07;4.88;;;13.00;99.90;;;;;;6269264;28;20060;-75
2023/10/28 14:54:42;;;;;;;6.88;3.15;;;13.00;99.90;;;;;;6255390;28;20422;-76
2023/10/28 14:57:45;;;;;;;6.50;2.33;;;13.00;99.90;;;;;;6231006;28;20414;-76
2023/10/28 15:00:46;;;;;;;9.00;6.18;;;13.00;99.90;;;;;;6247130;28;20046;-76
2023/10/28 15:03:49;;;;;;;11.95;10.85;;;12.90;99.90;;;;;;6259498;28;20041;-77
2023/10/28 15:06:50;;;;;;;4.97;3.15;;;12.90;99.90;;;;;;6248348;28;20053;-76
2023/10/28 15:09:53;;;;;;;9.10;2.50;;;12.90;99.90;;;;;;6250342;28;20045;-76
2023/10/28 15:12:56;;;;;;;7.40;3.72;;;12.90;99.90;;;;;;6263286;28;20679;-76
2023/10/28 15:15:59;;;;;;;13.23;6.72;;;12.80;99.90;;;;;;6261103;28;20037;-76
2023/10/28 15:19:01;;;;;;;5.88;3.88;;;12.80;99.90;;;;;;6258444;28;20068;-76
2023/10/28 15:22:04;;;;;;;8.70;2.70;;;12.80;99.90;;;;;;6258722;28;20049;-76
2023/10/28 15:25:07;;;;;;;4.78;1.88;;;12.80;99.90;;;;;;6261556;28;20128;-76
2023/10/28 15:28:10;;;;;;;4.28;2.08;;;12.70;99.90;;;;;;6250525;28;20516;-76
2023/10/28 15:31:13;;;;;;;2.70;1.90;;;12.70;99.90;;;;;;6265717;28;20067;-76
2023/10/28 15:34:15;;;;;;;10.25;3.70;;;12.70;99.90;;;;;;6263769;28;20052;-76
2023/10/28 15:37:18;;;;;;;7.13;3.67;;;12.70;99.90;;;;;;6260550;28;20056;-77
2023/10/28 15:40:21;;;;;;;8.95;3.03;;;12.70;99.90;;;;;;6251493;28;20048;-76
2023/10/28 15:43:24;;;;;;;4.22;3.17;;;12.70;99.90;;;;;;6253044;28;20068;-76
2023/10/28 15:46:25;;;;;;;6.80;2.70;;;12.70;99.90;;;;;;6237034;28;20056;-77
2023/10/28 15:49:27;;;;;;;5.05;2.38;;;12.70;99.90;;;;;;6256113;28;20053;-77